Time;durP1;ratioP1;P1;durP2;ratioP2;P2;SDS_P1;SDS_P2;PMS_P1;PMS_P2;Temp;Humidity;BMP_temperature;BMP_pressure;BME280_temperature;BME280_humidity;BME280_pressure;Samples;Min_cycle;Max_cycle;Signal;HPM_P1;HPM_P2
2023/08/22 00:00:51;;;;;;;9.77;7.40;;;;;;;;;;6157295;23;20020;-90
2023/08/22 00:03:17;;;;;;;14.20;8.27;;;;;;;;;;6156227;23;20088;-90
2023/08/22 00:05:43;;;;;;;11.25;7.22;;;;;;;;;;6180149;23;20112;-90
2023/08/22 00:08:09;;;;;;;11.57;7.13;;;;;;;;;;6181318;23;20068;-90
2023/08/22 00:10:36;;;;;;;11.77;7.22;;;;;;;;;;6181295;23;20017;-90
2023/08/22 00:13:03;;;;;;;12.27;7.95;;;;;;;;;;6183062;23;20451;-90
2023/08/22 00:15:29;;;;;;;9.55;6.90;;;;;;;;;;6157492;23;20024;-89
2023/08/22 00:17:55;;;;;;;15.30;7.72;;;;;;;;;;6154992;23;20044;-90
2023/08/22 00:20:23;;;;;;;10.98;7.95;;;;;;;;;;6182732;23;20276;-90
2023/08/22 00:22:49;;;;;;;10.80;7.45;;;;;;;;;;6155955;23;20024;-91
2023/08/22 00:25:15;;;;;;;12.63;7.03;;;;;;;;;;6182882;23;20020;-90
2023/08/22 00:27:41;;;;;;;9.57;7.65;;;;;;;;;;6130889;23;20195;-90
2023/08/22 00:30:08;;;;;;;9.63;7.60;;;;;;;;;;6182954;23;20013;-90
2023/08/22 00:32:34;;;;;;;9.77;7.25;;;;;;;;;;6155524;23;20017;-89
2023/08/22 00:35:00;;;;;;;9.43;7.15;;;;;;;;;;6153933;23;20481;-90
2023/08/22 00:37:26;;;;;;;11.52;7.32;;;;;;;;;;6181605;23;20017;-90
2023/08/22 00:39:53;;;;;;;13.35;7.55;;;;;;;;;;6155776;23;20105;-90
2023/08/22 00:42:19;;;;;;;11.93;8.05;;;;;;;;;;6155671;23;20055;-89
2023/08/22 00:44:45;;;;;;;9.15;7.07;;;;;;;;;;6181550;23;20013;-90
2023/08/22 00:47:11;;;;;;;12.98;8.10;;;;;;;;;;6181673;23;20621;-90
2023/08/22 00:49:38;;;;;;;14.15;9.02;;;;;;;;;;6155168;23;20013;-91
2023/08/22 00:52:04;;;;;;;14.68;9.07;;;;;;;;;;6155002;23;20418;-90
2023/08/22 00:54:31;;;;;;;12.55;8.65;;;;;;;;;;6182437;23;20009;-90
2023/08/22 00:56:58;;;;;;;11.95;8.70;;;;;;;;;;6182198;23;20084;-90
2023/08/22 00:59:25;;;;;;;13.65;9.73;;;;;;;;;;6180840;23;20083;-90
2023/08/22 01:01:51;;;;;;;13.02;8.85;;;;;;;;;;6154390;23;20443;-90
2023/08/22 01:04:17;;;;;;;14.07;9.02;;;;;;;;;;6128216;23;20016;-90
2023/08/22 01:07:03;;;;;;;12.32;8.48;;;;;;;;;;6182012;23;20106;-90
2023/08/22 01:09:53;;;;;;;12.63;8.90;;;;;;;;;;6154780;23;20012;-90
2023/08/22 01:12:40;;;;;;;11.80;8.80;;;;;;;;;;6161569;23;20013;-90
2023/08/22 01:15:13;;;;;;;12.20;8.70;;;;;;;;;;6177876;23;20477;-90
2023/08/22 01:17:40;;;;;;;13.35;9.45;;;;;;;;;;6175242;23;20052;-90
2023/08/22 01:20:11;;;;;;;13.32;9.18;;;;;;;;;;6181843;23;20009;-90
2023/08/22 01:22:37;;;;;;;12.27;9.52;;;;;;;;;;6181556;23;20598;-90
2023/08/22 01:25:04;;;;;;;13.57;9.23;;;;;;;;;;6180322;23;20330;-90
2023/08/22 01:27:32;;;;;;;14.50;9.13;;;;;;;;;;6181772;23;20013;-90
2023/08/22 01:30:07;;;;;;;12.05;8.85;;;;;;;;;;6130857;23;20331;-90
2023/08/22 01:32:37;;;;;;;15.80;9.15;;;;;;;;;;6153934;23;20257;-89
2023/08/22 01:35:04;;;;;;;11.63;9.35;;;;;;;;;;6155141;23;20025;-89
2023/08/22 01:37:31;;;;;;;17.58;10.57;;;;;;;;;;6182068;23;20096;-91
2023/08/22 01:39:58;;;;;;;14.98;10.20;;;;;;;;;;6181172;23;20068;-89
2023/08/22 01:42:24;;;;;;;17.23;9.73;;;;;;;;;;6183762;23;20501;-89
2023/08/22 01:44:50;;;;;;;11.05;9.05;;;;;;;;;;6181089;23;20017;-90
2023/08/22 01:47:16;;;;;;;11.82;9.48;;;;;;;;;;6183806;23;20040;-90
2023/08/22 01:49:42;;;;;;;15.27;9.82;;;;;;;;;;6183146;23;20328;-90
2023/08/22 01:52:08;;;;;;;15.25;9.60;;;;;;;;;;6157794;23;20143;-90
2023/08/22 01:54:38;;;;;;;12.40;9.07;;;;;;;;;;6156747;23;20013;-90
2023/08/22 01:57:04;;;;;;;14.02;9.50;;;;;;;;;;6157933;23;20023;-90
2023/08/22 01:59:31;;;;;;;16.38;9.50;;;;;;;;;;6183652;23;20454;-89
2023/08/22 02:01:57;;;;;;;13.40;9.68;;;;;;;;;;6181908;23;20016;-89
2023/08/22 02:04:23;;;;;;;11.85;8.73;;;;;;;;;;6155019;23;20080;-90
2023/08/22 02:06:49;;;;;;;10.63;8.20;;;;;;;;;;6183074;23;20020;-91
2023/08/22 02:09:15;;;;;;;11.63;8.20;;;;;;;;;;6155874;23;20257;-90
2023/08/22 02:11:41;;;;;;;12.93;9.35;;;;;;;;;;6183713;23;20013;-89
2023/08/22 02:14:07;;;;;;;12.65;9.60;;;;;;;;;;6156301;23;20075;-90
2023/08/22 02:16:34;;;;;;;14.20;9.25;;;;;;;;;;6155064;23;20021;-90
2023/08/22 02:19:00;;;;;;;16.73;10.18;;;;;;;;;;6156480;23;20076;-90
2023/08/22 02:21:26;;;;;;;11.45;9.05;;;;;;;;;;6157774;23;20017;-91
2023/08/22 02:23:52;;;;;;;13.75;9.95;;;;;;;;;;6155754;23;20091;-89
2023/08/22 02:26:18;;;;;;;17.33;10.30;;;;;;;;;;6183712;23;20299;-90
2023/08/22 02:28:44;;;;;;;13.20;9.48;;;;;;;;;;6131641;23;20089;-90
2023/08/22 02:31:10;;;;;;;15.10;9.75;;;;;;;;;;6156469;23;20045;-90
2023/08/22 02:33:36;;;;;;;14.48;9.35;;;;;;;;;;6156854;23;20021;-90
2023/08/22 02:36:02;;;;;;;17.95;10.07;;;;;;;;;;6183675;23;20019;-90
2023/08/22 02:38:28;;;;;;;14.45;9.45;;;;;;;;;;6183046;23;20028;-90
2023/08/22 02:40:54;;;;;;;13.60;9.35;;;;;;;;;;6183011;23;20089;-90
2023/08/22 02:43:20;;;;;;;14.23;8.93;;;;;;;;;;6156194;23;20017;-91
2023/08/22 02:45:47;;;;;;;11.63;7.93;;;;;;;;;;6182298;23;20013;-90
2023/08/22 02:48:13;;;;;;;13.77;9.52;;;;;;;;;;6156475;23;20044;-90
2023/08/22 02:50:39;;;;;;;13.90;9.60;;;;;;;;;;6183633;23;20013;-90
2023/08/22 02:53:05;;;;;;;14.25;8.70;;;;;;;;;;6155497;23;20032;-90
2023/08/22 02:55:31;;;;;;;13.38;8.77;;;;;;;;;;6183079;23;20016;-89
2023/08/22 02:57:58;;;;;;;13.50;9.02;;;;;;;;;;6182391;23;20025;-90
2023/08/22 03:00:25;;;;;;;11.73;8.38;;;;;;;;;;6156973;23;20021;-90
2023/08/22 03:02:51;;;;;;;16.00;9.02;;;;;;;;;;6156019;23;20506;-90
2023/08/22 03:05:17;;;;;;;10.50;7.38;;;;;;;;;;6183179;23;20108;-91
2023/08/22 03:07:43;;;;;;;15.65;9.23;;;;;;;;;;6183547;23;20102;-89
2023/08/22 03:10:09;;;;;;;14.00;8.10;;;;;;;;;;6154606;23;20088;-91
2023/08/22 03:12:36;;;;;;;11.00;7.85;;;;;;;;;;6155422;23;20024;-91
2023/08/22 03:15:02;;;;;;;10.82;8.13;;;;;;;;;;6156646;23;20395;-91
2023/08/22 03:17:28;;;;;;;11.38;8.65;;;;;;;;;;6183533;23;20017;-90
2023/08/22 03:19:54;;;;;;;11.80;8.27;;;;;;;;;;6180270;23;20009;-90
2023/08/22 03:22:20;;;;;;;11.52;7.97;;;;;;;;;;6182861;23;20009;-90
2023/08/22 03:24:46;;;;;;;13.68;8.57;;;;;;;;;;6182832;23;20080;-89
2023/08/22 03:27:12;;;;;;;12.35;8.48;;;;;;;;;;6156109;23;20024;-90
2023/08/22 03:29:39;;;;;;;17.83;9.40;;;;;;;;;;6182447;23;20439;-91
2023/08/22 03:32:05;;;;;;;13.18;8.75;;;;;;;;;;6182909;23;20474;-90
2023/08/22 03:34:31;;;;;;;14.13;8.88;;;;;;;;;;6181264;23;20021;-90
2023/08/22 03:36:57;;;;;;;13.30;8.80;;;;;;;;;;6156366;23;20607;-90
2023/08/22 03:39:23;;;;;;;11.23;8.88;;;;;;;;;;6180840;23;20013;-90
2023/08/22 03:41:49;;;;;;;12.00;9.25;;;;;;;;;;6182320;23;20013;-90
2023/08/22 03:44:15;;;;;;;12.73;8.60;;;;;;;;;;6182041;23;20092;-90
2023/08/22 03:46:41;;;;;;;17.70;9.23;;;;;;;;;;6157176;23;20092;-91
2023/08/22 03:49:07;;;;;;;16.60;10.32;;;;;;;;;;6182850;23;20017;-90
2023/08/22 03:51:33;;;;;;;12.52;8.88;;;;;;;;;;6156650;23;20021;-90
2023/08/22 03:54:00;;;;;;;15.63;10.10;;;;;;;;;;6183773;23;20063;-90
2023/08/22 03:56:26;;;;;;;14.65;9.32;;;;;;;;;;6182140;23;20028;-90
2023/08/22 03:58:52;;;;;;;14.90;9.55;;;;;;;;;;6181867;23;20044;-90
2023/08/22 04:01:18;;;;;;;13.63;9.52;;;;;;;;;;6182718;23;20076;-90
2023/08/22 04:03:44;;;;;;;12.93;9.48;;;;;;;;;;6182014;23;20021;-90
2023/08/22 04:06:10;;;;;;;14.38;10.00;;;;;;;;;;6156134;23;20373;-90
2023/08/22 04:08:36;;;;;;;14.30;9.68;;;;;;;;;;6157752;23;20095;-90
2023/08/22 04:11:02;;;;;;;14.40;10.13;;;;;;;;;;6183524;23;20013;-90
2023/08/22 04:13:28;;;;;;;13.65;10.82;;;;;;;;;;6156155;23;20524;-90
2023/08/22 04:15:54;;;;;;;16.80;10.77;;;;;;;;;;6181277;23;20027;-90
2023/08/22 04:18:20;;;;;;;17.73;11.38;;;;;;;;;;6181916;23;20017;-90
2023/08/22 04:20:46;;;;;;;15.50;11.00;;;;;;;;;;6181975;23;20020;-90
2023/08/22 04:23:12;;;;;;;14.23;11.40;;;;;;;;;;6182445;23;20055;-90
2023/08/22 04:25:38;;;;;;;16.30;10.32;;;;;;;;;;6155022;23;20091;-90
2023/08/22 04:28:05;;;;;;;15.45;11.60;;;;;;;;;;6154898;23;20036;-90
2023/08/22 04:30:31;;;;;;;13.93;11.52;;;;;;;;;;6182126;23;20090;-91
2023/08/22 04:32:57;;;;;;;19.05;11.73;;;;;;;;;;6181679;23;20013;-90
2023/08/22 04:35:23;;;;;;;15.93;11.93;;;;;;;;;;6182225;23;20442;-90
2023/08/22 04:37:50;;;;;;;16.75;11.70;;;;;;;;;;6181788;23;20339;-90
2023/08/22 04:40:16;;;;;;;17.10;11.20;;;;;;;;;;6180637;23;20405;-90
2023/08/22 04:42:42;;;;;;;14.68;11.07;;;;;;;;;;6180942;23;20099;-90
2023/08/22 04:45:09;;;;;;;17.02;11.27;;;;;;;;;;6155100;23;20493;-91
2023/08/22 04:47:35;;;;;;;16.83;11.23;;;;;;;;;;6153782;23;20013;-90
2023/08/22 04:50:01;;;;;;;16.08;11.40;;;;;;;;;;6156147;23;20025;-90
2023/08/22 04:52:27;;;;;;;14.93;11.65;;;;;;;;;;6182588;23;20045;-90
2023/08/22 04:54:55;;;;;;;19.23;12.50;;;;;;;;;;6181650;23;20017;-90
2023/08/22 04:57:23;;;;;;;14.27;10.60;;;;;;;;;;6181035;23;20017;-90
2023/08/22 04:59:49;;;;;;;16.25;11.45;;;;;;;;;;6180696;23;20071;-90
2023/08/22 05:02:15;;;;;;;15.05;11.10;;;;;;;;;;6155762;23;20099;-90
2023/08/22 05:04:42;;;;;;;16.08;11.02;;;;;;;;;;6180930;23;20020;-90
2023/08/22 05:07:08;;;;;;;14.00;10.98;;;;;;;;;;6181675;23;20025;-90
2023/08/22 05:09:34;;;;;;;13.68;10.68;;;;;;;;;;6180536;23;20012;-91
2023/08/22 05:12:00;;;;;;;15.00;11.23;;;;;;;;;;6155142;23;20017;-90
2023/08/22 05:14:27;;;;;;;17.55;11.20;;;;;;;;;;6181755;23;20316;-90
2023/08/22 05:16:54;;;;;;;13.88;10.60;;;;;;;;;;6181699;23;20025;-90
2023/08/22 05:19:20;;;;;;;14.52;10.77;;;;;;;;;;6180871;23;20021;-90
2023/08/22 05:21:46;;;;;;;15.52;10.82;;;;;;;;;;6182847;23;20068;-90
2023/08/22 05:24:12;;;;;;;14.80;11.20;;;;;;;;;;6181928;23;20406;-90
2023/08/22 05:26:38;;;;;;;14.02;11.25;;;;;;;;;;6182743;23;20343;-91
2023/08/22 05:29:04;;;;;;;16.80;10.95;;;;;;;;;;6181355;23;20378;-92
2023/08/22 05:31:30;;;;;;;16.75;11.18;;;;;;;;;;6184674;23;20112;-91
2023/08/22 05:33:56;;;;;;;16.10;11.00;;;;;;;;;;6182252;23;20021;-90
2023/08/22 05:36:22;;;;;;;13.43;10.20;;;;;;;;;;6182456;23;20104;-91
2023/08/22 05:38:48;;;;;;;13.70;10.13;;;;;;;;;;6155059;23;20118;-93
2023/08/22 05:41:14;;;;;;;12.00;10.13;;;;;;;;;;6182119;23;20066;-91
2023/08/22 05:43:40;;;;;;;12.25;9.75;;;;;;;;;;6155721;23;20013;-91
2023/08/22 05:46:06;;;;;;;12.75;9.70;;;;;;;;;;6155495;23;20511;-91
2023/08/22 05:48:32;;;;;;;11.95;9.52;;;;;;;;;;6154577;23;20082;-91
2023/08/22 05:51:01;;;;;;;13.73;10.02;;;;;;;;;;6156070;23;20028;-91
2023/08/22 05:53:27;;;;;;;14.13;9.43;;;;;;;;;;6156031;23;20442;-91
2023/08/22 05:55:53;;;;;;;11.02;9.05;;;;;;;;;;6187761;23;20064;-92
2023/08/22 05:58:19;;;;;;;12.48;9.20;;;;;;;;;;6161767;23;20028;-93
2023/08/22 06:00:46;;;;;;;12.68;9.38;;;;;;;;;;6183974;23;20088;-92
2023/08/22 06:03:12;;;;;;;10.48;8.38;;;;;;;;;;6155222;23;20320;-92
2023/08/22 06:05:38;;;;;;;13.27;8.40;;;;;;;;;;6183605;23;20027;-91
2023/08/22 06:08:04;;;;;;;12.40;8.30;;;;;;;;;;6182066;23;20454;-92
2023/08/22 06:10:30;;;;;;;10.07;7.97;;;;;;;;;;6156092;23;20017;-92
2023/08/22 06:12:56;;;;;;;10.75;8.27;;;;;;;;;;6155764;23;20163;-92
2023/08/22 06:15:23;;;;;;;11.02;8.52;;;;;;;;;;6182855;23;20021;-90
2023/08/22 06:17:49;;;;;;;11.07;7.93;;;;;;;;;;6181541;23;20060;-91
2023/08/22 06:20:15;;;;;;;12.52;8.05;;;;;;;;;;6182357;23;20016;-91
2023/08/22 06:22:41;;;;;;;12.57;7.88;;;;;;;;;;6182202;23;20009;-91
2023/08/22 06:25:07;;;;;;;9.15;7.65;;;;;;;;;;6155826;23;20024;-91
2023/08/22 06:27:33;;;;;;;12.32;7.95;;;;;;;;;;6156123;23;20027;-91
2023/08/22 06:30:00;;;;;;;9.95;7.28;;;;;;;;;;6184223;23;20457;-92
2023/08/22 06:32:26;;;;;;;11.50;7.78;;;;;;;;;;6184261;23;20036;-91
2023/08/22 06:34:52;;;;;;;12.23;7.25;;;;;;;;;;6157480;23;20017;-91
2023/08/22 06:37:19;;;;;;;10.18;7.35;;;;;;;;;;6157654;23;20021;-90
2023/08/22 06:39:45;;;;;;;7.97;6.88;;;;;;;;;;6181458;23;20064;-92
2023/08/22 06:42:11;;;;;;;10.77;7.53;;;;;;;;;;6157501;23;20024;-91
2023/08/22 06:44:37;;;;;;;11.02;6.85;;;;;;;;;;6156836;23;20320;-95
2023/08/22 06:47:03;;;;;;;10.05;7.03;;;;;;;;;;6188155;23;20071;-89
2023/08/22 06:49:29;;;;;;;14.93;8.35;;;;;;;;;;6132703;23;20067;-92
2023/08/22 06:51:55;;;;;;;11.30;6.88;;;;;;;;;;6157679;23;20017;-94
2023/08/22 06:54:22;;;;;;;11.23;7.07;;;;;;;;;;6185202;23;20017;-93
2023/08/22 06:56:48;;;;;;;10.55;7.07;;;;;;;;;;6185179;23;20017;-93
2023/08/22 06:59:14;;;;;;;11.07;7.15;;;;;;;;;;6184483;23;20100;-93
2023/08/22 07:01:40;;;;;;;9.77;7.47;;;;;;;;;;6184235;23;20472;-93
2023/08/22 07:04:06;;;;;;;9.23;6.30;;;;;;;;;;6184436;23;20080;-93
2023/08/22 07:06:32;;;;;;;9.05;7.15;;;;;;;;;;6157829;23;20013;-94
2023/08/22 07:08:58;;;;;;;9.85;6.90;;;;;;;;;;6184265;23;20021;-94
2023/08/22 07:11:24;;;;;;;9.40;6.85;;;;;;;;;;6184613;23;20009;-95
2023/08/22 07:13:50;;;;;;;10.32;7.10;;;;;;;;;;6184089;23;20024;-94
2023/08/22 07:16:17;;;;;;;13.60;6.22;;;;;;;;;;6158497;23;20017;-93
2023/08/22 07:18:43;;;;;;;10.43;6.85;;;;;;;;;;6184126;23;20092;-93
2023/08/22 07:21:09;;;;;;;7.57;6.28;;;;;;;;;;6157510;23;20020;-94
2023/08/22 07:23:35;;;;;;;9.02;6.68;;;;;;;;;;6158019;23;20020;-94
2023/08/22 07:26:01;;;;;;;9.93;6.20;;;;;;;;;;6183872;23;20025;-93
2023/08/22 07:28:27;;;;;;;8.40;6.07;;;;;;;;;;6156926;23;20285;-93
2023/08/22 07:30:53;;;;;;;9.02;5.80;;;;;;;;;;6182795;23;20013;-94
2023/08/22 07:33:20;;;;;;;8.75;6.32;;;;;;;;;;6157206;23;20092;-93
2023/08/22 07:35:46;;;;;;;8.48;6.07;;;;;;;;;;6181643;23;20021;-94
2023/08/22 07:38:13;;;;;;;8.50;5.70;;;;;;;;;;6184818;23;20013;-93
2023/08/22 07:40:41;;;;;;;8.00;5.75;;;;;;;;;;6185188;23;20021;-94
2023/08/22 07:43:08;;;;;;;10.20;5.63;;;;;;;;;;6185852;23;20096;-93
2023/08/22 07:45:34;;;;;;;7.88;6.40;;;;;;;;;;6182851;23;20346;-94
2023/08/22 07:48:00;;;;;;;8.55;5.57;;;;;;;;;;6156344;23;20276;-91
2023/08/22 07:50:26;;;;;;;9.75;5.75;;;;;;;;;;6183790;23;20017;-93
2023/08/22 07:52:52;;;;;;;11.13;6.28;;;;;;;;;;6183674;23;20092;-93
2023/08/22 07:55:18;;;;;;;8.82;6.50;;;;;;;;;;6184126;23;20023;-94
2023/08/22 07:57:44;;;;;;;9.85;6.30;;;;;;;;;;6185503;23;20525;-93
2023/08/22 08:00:11;;;;;;;8.68;6.28;;;;;;;;;;6158406;23;20464;-94
2023/08/22 08:02:40;;;;;;;10.80;6.32;;;;;;;;;;6183272;23;20064;-94
2023/08/22 08:05:07;;;;;;;8.88;6.80;;;;;;;;;;6157284;23;20037;-94
2023/08/22 08:07:34;;;;;;;9.93;6.03;;;;;;;;;;6183921;23;20017;-94
2023/08/22 08:10:00;;;;;;;9.30;6.00;;;;;;;;;;6157427;23;20040;-93
2023/08/22 08:12:26;;;;;;;9.45;6.60;;;;;;;;;;6159512;23;20017;-93
2023/08/22 08:14:53;;;;;;;9.60;6.72;;;;;;;;;;6156064;23;20024;-92
2023/08/22 08:17:19;;;;;;;11.02;6.90;;;;;;;;;;6156429;23;20071;-93
2023/08/22 08:19:45;;;;;;;9.18;6.38;;;;;;;;;;6156552;23;20013;-93
2023/08/22 08:22:11;;;;;;;11.95;6.53;;;;;;;;;;6182778;23;20009;-93
2023/08/22 08:24:38;;;;;;;8.38;5.82;;;;;;;;;;6182834;23;20035;-94
2023/08/22 08:27:05;;;;;;;7.05;6.00;;;;;;;;;;6186922;23;20038;-96
2023/08/22 08:29:31;;;;;;;10.20;6.07;;;;;;;;;;6186834;23;20080;-96
2023/08/22 08:31:57;;;;;;;10.15;7.50;;;;;;;;;;6184479;23;20016;-96
2023/08/22 08:34:23;;;;;;;9.55;6.60;;;;;;;;;;6183413;23;20024;-96
2023/08/22 08:36:50;;;;;;;9.30;6.07;;;;;;;;;;6185199;23;20021;-96
2023/08/22 08:39:17;;;;;;;12.82;6.97;;;;;;;;;;6188848;23;20017;-93
2023/08/22 15:57:36;;;;;;;7.88;3.58;;;;;;;;;;6152797;23;20116;-87
2023/08/22 16:00:03;;;;;;;5.15;3.05;;;;;;;;;;6156110;23;20516;-88
2023/08/22 16:02:29;;;;;;;5.22;3.33;;;;;;;;;;6156348;23;20417;-88
2023/08/22 16:04:56;;;;;;;5.50;2.60;;;;;;;;;;6130836;23;20390;-88
2023/08/22 16:07:22;;;;;;;7.15;3.17;;;;;;;;;;6156099;23;20524;-88
2023/08/22 16:09:48;;;;;;;5.25;2.67;;;;;;;;;;6105306;23;20057;-88
2023/08/22 16:12:17;;;;;;;5.38;3.45;;;;;;;;;;6130029;23;20017;-87
2023/08/22 16:14:43;;;;;;;8.52;3.03;;;;;;;;;;6130361;23;20022;-88
2023/08/22 16:17:11;;;;;;;8.45;3.17;;;;;;;;;;6130283;23;20021;-89
2023/08/22 16:19:37;;;;;;;4.45;2.45;;;;;;;;;;6130005;23;20049;-87
2023/08/22 16:22:03;;;;;;;4.50;2.97;;;;;;;;;;6130322;23;20358;-88
2023/08/22 16:24:29;;;;;;;7.28;3.17;;;;;;;;;;6105412;23;20407;-86
2023/08/22 16:26:55;;;;;;;9.85;3.72;;;;;;;;;;6156289;23;20014;-87
2023/08/22 16:29:21;;;;;;;6.15;3.47;;;;;;;;;;6130075;23;20028;-88
2023/08/22 16:31:47;;;;;;;7.07;3.53;;;;;;;;;;6156179;23;20013;-89
2023/08/22 16:34:15;;;;;;;8.85;3.50;;;;;;;;;;6106410;23;20100;-88
2023/08/22 16:36:41;;;;;;;7.72;3.95;;;;;;;;;;6105237;23;20021;-86
2023/08/22 16:39:07;;;;;;;6.90;4.20;;;;;;;;;;6130947;23;20017;-86
2023/08/22 16:41:33;;;;;;;7.43;4.38;;;;;;;;;;6136487;23;20025;-85
2023/08/22 16:43:59;;;;;;;7.60;4.13;;;;;;;;;;6133783;23;20037;-85
2023/08/22 16:46:27;;;;;;;8.98;4.45;;;;;;;;;;6107145;23;20028;-86
2023/08/22 16:48:53;;;;;;;7.05;3.97;;;;;;;;;;6156350;23;20045;-86
2023/08/22 16:51:19;;;;;;;16.23;3.95;;;;;;;;;;6156247;23;20097;-86
2023/08/22 16:53:45;;;;;;;6.60;4.53;;;;;;;;;;6105007;23;20542;-86
2023/08/22 16:56:11;;;;;;;7.82;3.92;;;;;;;;;;6105162;23;20018;-88
2023/08/22 16:58:39;;;;;;;8.38;4.35;;;;;;;;;;6129533;23;20033;-86
2023/08/22 17:01:06;;;;;;;6.95;3.72;;;;;;;;;;6129798;23;20017;-86
2023/08/22 17:03:34;;;;;;;7.07;3.90;;;;;;;;;;6105405;23;20350;-86
2023/08/22 17:06:03;;;;;;;6.18;3.60;;;;;;;;;;6105212;23;20069;-87
2023/08/22 17:08:29;;;;;;;7.22;3.70;;;;;;;;;;6105667;23;20021;-87
2023/08/22 17:11:03;;;;;;;7.93;3.70;;;;;;;;;;6129668;23;20335;-87
2023/08/22 17:13:29;;;;;;;7.07;4.13;;;;;;;;;;6155662;23;20020;-86
2023/08/22 17:15:59;;;;;;;6.00;3.67;;;;;;;;;;6155986;23;20501;-87
2023/08/22 17:18:25;;;;;;;6.65;3.22;;;;;;;;;;6105507;23;20022;-88
2023/08/22 17:20:51;;;;;;;7.03;3.45;;;;;;;;;;6129721;23;20084;-88
2023/08/22 17:23:17;;;;;;;5.85;3.30;;;;;;;;;;6106027;23;20085;-88
2023/08/22 17:25:43;;;;;;;4.40;3.05;;;;;;;;;;6156369;23;20048;-89
2023/08/22 17:28:10;;;;;;;8.40;3.65;;;;;;;;;;6131000;23;20096;-88
2023/08/22 17:30:39;;;;;;;6.18;3.15;;;;;;;;;;6129625;23;20087;-88
2023/08/22 17:33:05;;;;;;;5.22;3.10;;;;;;;;;;6105284;23;20454;-88
2023/08/22 17:35:32;;;;;;;4.63;3.47;;;;;;;;;;6105729;23;20400;-88
2023/08/22 17:37:58;;;;;;;4.82;3.38;;;;;;;;;;6129693;23;20490;-88
2023/08/22 17:40:33;;;;;;;7.40;3.33;;;;;;;;;;6129890;23;20108;-88
2023/08/22 17:42:59;;;;;;;4.75;3.30;;;;;;;;;;6130105;23;20018;-88
2023/08/22 17:45:25;;;;;;;6.78;3.20;;;;;;;;;;6129659;23;20021;-88
2023/08/22 17:47:52;;;;;;;5.10;2.90;;;;;;;;;;6105967;23;20021;-88
2023/08/22 17:50:18;;;;;;;5.30;3.00;;;;;;;;;;6129763;23;20024;-88
2023/08/22 17:52:44;;;;;;;6.03;3.22;;;;;;;;;;6129304;23;20314;-88
2023/08/22 17:55:11;;;;;;;4.88;2.90;;;;;;;;;;6106115;23;20057;-88
2023/08/22 17:57:38;;;;;;;4.22;2.88;;;;;;;;;;6129511;23;20035;-88
2023/08/22 18:00:05;;;;;;;6.40;3.17;;;;;;;;;;6129733;23;20389;-88
2023/08/22 18:02:31;;;;;;;3.72;2.40;;;;;;;;;;6105139;23;20028;-88
2023/08/22 18:04:57;;;;;;;3.67;2.35;;;;;;;;;;6129978;23;20124;-88
2023/08/22 18:07:23;;;;;;;5.40;2.53;;;;;;;;;;6130593;23;20292;-88
2023/08/22 18:09:49;;;;;;;4.40;2.85;;;;;;;;;;6105757;23;20021;-87
2023/08/22 18:12:15;;;;;;;4.93;2.88;;;;;;;;;;6105703;23;20029;-86
2023/08/22 18:14:44;;;;;;;5.13;2.70;;;;;;;;;;6130154;23;20338;-89
2023/08/22 18:17:10;;;;;;;5.63;3.17;;;;;;;;;;6106947;23;20014;-89
2023/08/22 18:19:36;;;;;;;4.80;3.20;;;;;;;;;;6106217;23;20018;-89
2023/08/22 18:22:06;;;;;;;6.15;3.28;;;;;;;;;;6130315;23;20032;-89
2023/08/22 18:24:34;;;;;;;6.00;3.10;;;;;;;;;;6131823;23;20017;-88
2023/08/22 18:27:03;;;;;;;4.63;3.35;;;;;;;;;;6107824;23;20446;-89
2023/08/22 18:29:29;;;;;;;5.15;3.72;;;;;;;;;;6107718;23;20104;-89
2023/08/22 18:32:01;;;;;;;7.00;3.83;;;;;;;;;;6131927;23;20024;-89
2023/08/22 18:34:35;;;;;;;5.97;3.92;;;;;;;;;;6106925;23;20018;-88
2023/08/22 18:37:04;;;;;;;5.82;3.83;;;;;;;;;;6107584;23;20071;-89
2023/08/22 18:39:30;;;;;;;5.43;4.05;;;;;;;;;;6107592;23;20018;-88
2023/08/22 18:41:57;;;;;;;4.68;3.83;;;;;;;;;;6106785;23;20018;-88
2023/08/22 18:44:25;;;;;;;4.35;3.67;;;;;;;;;;6131939;23;20017;-88
2023/08/22 18:46:54;;;;;;;5.25;3.90;;;;;;;;;;6136881;23;20021;-88
2023/08/22 18:49:21;;;;;;;6.65;4.00;;;;;;;;;;6152896;23;20121;-88
2023/08/22 18:51:47;;;;;;;5.72;3.95;;;;;;;;;;6119284;23;20076;-88
2023/08/22 18:54:42;;;;;;;6.65;4.10;;;;;;;;;;6108473;23;20446;-88
2023/08/22 18:57:14;;;;;;;6.20;4.13;;;;;;;;;;6130064;23;20371;-88
2023/08/22 18:59:40;;;;;;;6.05;4.22;;;;;;;;;;6107228;23;20017;-88
2023/08/22 19:02:06;;;;;;;4.72;3.90;;;;;;;;;;6106946;23;20020;-88
2023/08/22 19:04:36;;;;;;;4.93;3.70;;;;;;;;;;6106970;23;20013;-88
2023/08/22 19:07:02;;;;;;;5.55;4.03;;;;;;;;;;6131509;23;20020;-88
2023/08/22 19:09:32;;;;;;;5.75;4.05;;;;;;;;;;6131397;23;20078;-88
2023/08/22 19:12:00;;;;;;;4.30;3.90;;;;;;;;;;6106641;23;20024;-88
2023/08/22 19:14:27;;;;;;;5.80;3.97;;;;;;;;;;6106991;23;20068;-88
2023/08/22 19:16:59;;;;;;;5.28;4.05;;;;;;;;;;6131055;23;20018;-88
2023/08/22 19:19:25;;;;;;;4.45;3.58;;;;;;;;;;6107279;23;20067;-88
2023/08/22 19:21:51;;;;;;;5.53;3.55;;;;;;;;;;6107831;23;20351;-88
2023/08/22 19:24:18;;;;;;;6.38;3.80;;;;;;;;;;6106985;23;20024;-88
2023/08/22 19:26:44;;;;;;;6.07;3.90;;;;;;;;;;6106925;23;20069;-88
2023/08/22 19:29:10;;;;;;;5.68;3.70;;;;;;;;;;6131638;23;20048;-88
2023/08/22 19:31:44;;;;;;;4.63;4.03;;;;;;;;;;6131469;23;20441;-88
2023/08/22 19:34:10;;;;;;;4.10;3.30;;;;;;;;;;6131194;23;20335;-88
2023/08/22 19:36:37;;;;;;;6.68;3.78;;;;;;;;;;6106492;23;20342;-89
2023/08/22 19:39:03;;;;;;;6.18;4.03;;;;;;;;;;6107527;23;20013;-88
2023/08/22 19:41:42;;;;;;;7.45;3.90;;;;;;;;;;6132378;23;20041;-88
2023/08/22 19:44:16;;;;;;;6.32;4.30;;;;;;;;;;6107361;23;20022;-88
2023/08/22 19:46:53;;;;;;;7.22;4.60;;;;;;;;;;6103462;23;20021;-88
2023/08/22 19:49:48;;;;;;;7.65;5.13;;;;;;;;;;6107297;23;20076;-88
2023/08/22 19:52:27;;;;;;;5.63;5.00;;;;;;;;;;6129744;23;20446;-88
2023/08/22 19:55:20;;;;;;;6.38;4.47;;;;;;;;;;6131270;23;20029;-88
2023/08/22 19:58:03;;;;;;;5.90;4.88;;;;;;;;;;6126062;23;20030;-88
2023/08/22 20:00:51;;;;;;;5.45;4.82;;;;;;;;;;6133647;23;20025;-88
2023/08/22 20:03:26;;;;;;;8.02;5.25;;;;;;;;;;6105571;23;20072;-88
2023/08/22 20:06:11;;;;;;;8.75;5.45;;;;;;;;;;6104160;23;20018;-88
2023/08/22 20:09:08;;;;;;;;;;;;;;;;;;;;;
2023/08/22 20:11:51;;;;;;;;;;;;;;;;;;;;;
2023/08/22 20:15:00;;;;;;;;;;;;;;;;;;;;;
2023/08/22 20:17:37;;;;;;;7.03;5.15;;;;;;;;;;6157563;23;20036;-88
2023/08/22 20:20:16;;;;;;;6.72;5.30;;;;;;;;;;6101898;23;20104;-88
2023/08/22 20:23:05;;;;;;;8.80;5.55;;;;;;;;;;6107916;23;20045;-88
2023/08/22 20:25:39;;;;;;;6.93;5.80;;;;;;;;;;6103354;23;20018;-88
2023/08/22 20:28:24;;;;;;;;;;;;;;;;;;;;;
2023/08/22 20:30:51;;;;;;;8.05;5.20;;;;;;;;;;6072382;23;20356;-89
2023/08/22 20:33:17;;;;;;;7.68;5.60;;;;;;;;;;6095414;23;20022;-88
2023/08/22 20:35:48;;;;;;;6.90;6.15;;;;;;;;;;6048485;23;20029;-89
2023/08/22 20:38:19;;;;;;;6.97;5.57;;;;;;;;;;6047698;23;20058;-89
2023/08/22 20:40:45;;;;;;;7.25;5.90;;;;;;;;;;6047025;23;20494;-89
2023/08/22 20:43:17;;;;;;;6.00;5.38;;;;;;;;;;6047064;23;20078;-89
2023/08/22 21:46:27;;;;;;;9.82;7.53;;;;;;;;;;5926238;24;20024;-90
2023/08/22 21:52:39;;;;;;;11.77;8.77;;;;;;;;;;5881076;24;20066;-89
